Terminal Aerodrome Forecast
Issued by NWS Cleveland, OH

Home | Current Version | Previous Version | Text Only | Print | Product List | Glossary Off
Versions: 1 2 3 4 5 6 7 8 9 10 11 12 13 14 15 16 17 18 19 20 21 22 23 24 25 26 27 28

417
FTUS41 KCLE 240534
TAFCLE
TAF
KCLE 240534Z 2406/2512 09006KT 6SM BR SCT025 BKN040
      TEMPO 2406/2410 5SM -SHRA BR BKN025
     FM241000 17009KT 6SM BR VCSH SCT025 BKN040
     FM241800 19016G26KT P6SM SCT045 BKN200
     FM250600 19013KT P6SM -SHRA VCTS BKN040CB
     FM251000 22013KT P6SM OVC015=

USA.gov is the U.S. government's official web portal to all federal, state and local government web resources and services.